sensor_id;sensor_type;location;lat;lon;timestamp;pressure;altitude;pressure_sealevel;temperature;humidity
56950;BME280;74437;50.080;19.924;2024-01-16T00:01:14;97209.72;;;-2.99;87.78
56950;BME280;74437;50.080;19.924;2024-01-16T00:03:40;97336.97;;;-2.25;88.99
56950;BME280;74437;50.080;19.924;2024-01-16T00:06:05;97338.63;;;-2.30;88.50
56950;BME280;74437;50.080;19.924;2024-01-16T00:08:32;97334.53;;;-2.33;88.89
56950;BME280;74437;50.080;19.924;2024-01-16T00:10:57;97332.28;;;-2.36;89.64
56950;BME280;74437;50.080;19.924;2024-01-16T00:13:22;97343.13;;;-2.37;89.95
56950;BME280;74437;50.080;19.924;2024-01-16T00:15:47;97344.38;;;-2.47;90.06
56950;BME280;74437;50.080;19.924;2024-01-16T00:18:14;97352.13;;;-2.38;90.16
56950;BME280;74437;50.080;19.924;2024-01-16T00:20:40;97355.56;;;-2.38;90.15
56950;BME280;74437;50.080;19.924;2024-01-16T00:23:05;97365.38;;;-2.38;90.13
56950;BME280;74437;50.080;19.924;2024-01-16T00:25:30;97353.13;;;-2.40;90.81
56950;BME280;74437;50.080;19.924;2024-01-16T00:27:56;97225.66;;;-3.25;90.40
56950;BME280;74437;50.080;19.924;2024-01-16T00:30:21;97350.50;;;-2.53;91.12
56950;BME280;74437;50.080;19.924;2024-01-16T00:32:46;97371.75;;;-2.46;90.54
56950;BME280;74437;50.080;19.924;2024-01-16T00:35:12;97368.06;;;-2.45;91.43
56950;BME280;74437;50.080;19.924;2024-01-16T00:37:37;97366.44;;;-2.46;91.78
56950;BME280;74437;50.080;19.924;2024-01-16T00:40:03;97352.75;;;-2.63;91.54
56950;BME280;74437;50.080;19.924;2024-01-16T00:42:30;97278.28;;;-3.16;91.65
56950;BME280;74437;50.080;19.924;2024-01-16T00:44:55;97378.06;;;-2.54;91.86
56950;BME280;74437;50.080;19.924;2024-01-16T00:47:20;97375.22;;;-2.52;92.32
56950;BME280;74437;50.080;19.924;2024-01-16T00:49:46;97383.97;;;-2.52;91.89
56950;BME280;74437;50.080;19.924;2024-01-16T00:52:11;97295.84;;;-3.08;91.47
56950;BME280;74437;50.080;19.924;2024-01-16T00:54:36;97386.63;;;-2.52;91.32
56950;BME280;74437;50.080;19.924;2024-01-16T00:57:02;97398.09;;;-2.51;91.78
56950;BME280;74437;50.080;19.924;2024-01-16T00:59:27;97390.91;;;-2.51;91.55
56950;BME280;74437;50.080;19.924;2024-01-16T01:01:52;97401.13;;;-2.55;92.06
56950;BME280;74437;50.080;19.924;2024-01-16T01:04:18;97322.97;;;-3.06;91.80
56950;BME280;74437;50.080;19.924;2024-01-16T01:06:43;97370.31;;;-2.76;91.57
56950;BME280;74437;50.080;19.924;2024-01-16T01:09:09;97400.31;;;-2.62;91.85
56950;BME280;74437;50.080;19.924;2024-01-16T01:11:37;97423.59;;;-2.57;91.89
56950;BME280;74437;50.080;19.924;2024-01-16T01:14:03;97413.56;;;-2.55;92.03
56950;BME280;74437;50.080;19.924;2024-01-16T01:16:28;97412.78;;;-2.56;91.95
56950;BME280;74437;50.080;19.924;2024-01-16T01:18:53;97416.66;;;-2.51;91.44
56950;BME280;74437;50.080;19.924;2024-01-16T01:21:18;97415.41;;;-2.49;90.85
56950;BME280;74437;50.080;19.924;2024-01-16T01:23:44;97372.97;;;-2.76;90.68
56950;BME280;74437;50.080;19.924;2024-01-16T01:26:09;97423.59;;;-2.44;91.52
56950;BME280;74437;50.080;19.924;2024-01-16T01:28:34;97435.00;;;-2.43;91.18
56950;BME280;74437;50.080;19.924;2024-01-16T01:31:00;97410.72;;;-2.47;90.81
56950;BME280;74437;50.080;19.924;2024-01-16T01:33:25;97426.84;;;-2.42;91.00
56950;BME280;74437;50.080;19.924;2024-01-16T01:35:50;97424.81;;;-2.40;90.85
56950;BME280;74437;50.080;19.924;2024-01-16T01:38:15;97421.13;;;-2.38;91.13
56950;BME280;74437;50.080;19.924;2024-01-16T01:40:41;97428.09;;;-2.37;90.11
56950;BME280;74437;50.080;19.924;2024-01-16T01:43:19;97425.44;;;-2.37;90.87
56950;BME280;74437;50.080;19.924;2024-01-16T01:45:48;97432.56;;;-2.38;91.41
56950;BME280;74437;50.080;19.924;2024-01-16T01:48:22;97420.94;;;-2.44;90.77
56950;BME280;74437;50.080;19.924;2024-01-16T01:50:48;97426.88;;;-2.48;91.49
56950;BME280;74437;50.080;19.924;2024-01-16T01:53:13;97408.50;;;-2.57;91.77
56950;BME280;74437;50.080;19.924;2024-01-16T01:55:38;97397.84;;;-2.63;91.25
56950;BME280;74437;50.080;19.924;2024-01-16T01:58:04;97422.78;;;-2.51;92.02
56950;BME280;74437;50.080;19.924;2024-01-16T02:00:31;97432.97;;;-2.41;90.92
56950;BME280;74437;50.080;19.924;2024-01-16T02:02:56;97430.13;;;-2.40;91.67
56950;BME280;74437;50.080;19.924;2024-01-16T02:05:22;97428.50;;;-2.41;90.97
56950;BME280;74437;50.080;19.924;2024-01-16T02:07:47;97433.38;;;-2.44;91.49
56950;BME280;74437;50.080;19.924;2024-01-16T02:10:12;97413.78;;;-2.57;90.79
56950;BME280;74437;50.080;19.924;2024-01-16T02:12:38;97440.31;;;-2.43;90.79
56950;BME280;74437;50.080;19.924;2024-01-16T02:15:03;97442.56;;;-2.47;90.58
56950;BME280;74437;50.080;19.924;2024-01-16T02:17:29;97431.53;;;-2.57;91.06
56950;BME280;74437;50.080;19.924;2024-01-16T02:19:54;97441.53;;;-2.66;90.26
56950;BME280;74437;50.080;19.924;2024-01-16T02:22:20;97368.81;;;-3.25;90.42
56950;BME280;74437;50.080;19.924;2024-01-16T02:24:48;97452.56;;;-2.76;91.20
56950;BME280;74437;50.080;19.924;2024-01-16T02:27:14;97444.19;;;-2.73;90.68
56950;BME280;74437;50.080;19.924;2024-01-16T02:29:42;97448.88;;;-2.68;89.90
56950;BME280;74437;50.080;19.924;2024-01-16T02:32:11;97455.66;;;-2.65;90.28
56950;BME280;74437;50.080;19.924;2024-01-16T02:34:37;97300.25;;;-3.55;89.56
56950;BME280;74437;50.080;19.924;2024-01-16T02:37:03;97451.53;;;-2.61;88.69
56950;BME280;74437;50.080;19.924;2024-01-16T02:39:29;97355.78;;;-3.27;88.88
56950;BME280;74437;50.080;19.924;2024-01-16T02:41:54;97437.03;;;-2.79;88.59
56950;BME280;74437;50.080;19.924;2024-01-16T02:44:19;97455.63;;;-2.72;88.33
56950;BME280;74437;50.080;19.924;2024-01-16T02:46:45;97467.25;;;-2.73;88.61
56950;BME280;74437;50.080;19.924;2024-01-16T02:49:10;97417.22;;;-3.03;87.78
56950;BME280;74437;50.080;19.924;2024-01-16T02:51:35;97463.59;;;-2.65;87.92
56950;BME280;74437;50.080;19.924;2024-01-16T02:54:01;97468.47;;;-2.62;88.72
56950;BME280;74437;50.080;19.924;2024-01-16T02:56:26;97457.91;;;-2.56;87.81
56950;BME280;74437;50.080;19.924;2024-01-16T02:58:51;97457.69;;;-2.47;87.36
56950;BME280;74437;50.080;19.924;2024-01-16T03:01:16;97461.16;;;-2.47;86.78
56950;BME280;74437;50.080;19.924;2024-01-16T03:03:42;97464.22;;;-2.36;86.02
56950;BME280;74437;50.080;19.924;2024-01-16T03:06:07;97469.13;;;-2.33;85.91
56950;BME280;74437;50.080;19.924;2024-01-16T03:08:32;97467.09;;;-2.31;86.43
56950;BME280;74437;50.080;19.924;2024-01-16T03:10:57;97427.69;;;-2.55;86.01
56950;BME280;74437;50.080;19.924;2024-01-16T03:13:23;97466.47;;;-2.33;85.60
56950;BME280;74437;50.080;19.924;2024-01-16T03:15:48;97471.19;;;-2.35;85.12
56950;BME280;74437;50.080;19.924;2024-01-16T03:18:13;97465.25;;;-2.37;85.36
56950;BME280;74437;50.080;19.924;2024-01-16T03:20:39;97479.34;;;-2.37;85.58
56950;BME280;74437;50.080;19.924;2024-01-16T03:23:04;97480.38;;;-2.31;85.48
56950;BME280;74437;50.080;19.924;2024-01-16T03:25:29;97486.69;;;-2.26;84.50
56950;BME280;74437;50.080;19.924;2024-01-16T03:27:54;97471.16;;;-2.22;84.40
56950;BME280;74437;50.080;19.924;2024-01-16T03:30:20;97477.50;;;-2.16;83.97
56950;BME280;74437;50.080;19.924;2024-01-16T03:32:45;97473.84;;;-2.15;83.78
56950;BME280;74437;50.080;19.924;2024-01-16T03:35:10;97483.22;;;-2.06;83.07
56950;BME280;74437;50.080;19.924;2024-01-16T03:37:37;97419.50;;;-2.40;82.97
56950;BME280;74437;50.080;19.924;2024-01-16T03:40:03;97479.72;;;-2.00;82.17
56950;BME280;74437;50.080;19.924;2024-01-16T03:42:28;97422.78;;;-2.37;81.75
56950;BME280;74437;50.080;19.924;2024-01-16T03:44:53;97491.81;;;-1.97;82.13
56950;BME280;74437;50.080;19.924;2024-01-16T03:47:19;97463.19;;;-2.08;81.45
56950;BME280;74437;50.080;19.924;2024-01-16T03:49:44;97494.25;;;-1.89;80.91
56950;BME280;74437;50.080;19.924;2024-01-16T03:52:10;97492.81;;;-1.85;81.00
56950;BME280;74437;50.080;19.924;2024-01-16T03:54:35;97484.84;;;-1.85;81.20
56950;BME280;74437;50.080;19.924;2024-01-16T03:57:00;97489.31;;;-1.85;82.30
56950;BME280;74437;50.080;19.924;2024-01-16T03:59:26;97495.47;;;-1.85;82.43
56950;BME280;74437;50.080;19.924;2024-01-16T04:01:51;97498.13;;;-1.85;82.05
56950;BME280;74437;50.080;19.924;2024-01-16T04:04:17;97493.63;;;-1.84;83.64
56950;BME280;74437;50.080;19.924;2024-01-16T04:06:43;97476.06;;;-2.05;84.98
56950;BME280;74437;50.080;19.924;2024-01-16T04:09:08;97494.88;;;-2.07;87.15
56950;BME280;74437;50.080;19.924;2024-01-16T04:11:35;97480.38;;;-2.25;88.74
56950;BME280;74437;50.080;19.924;2024-01-16T04:14:00;97491.38;;;-2.28;89.30
56950;BME280;74437;50.080;19.924;2024-01-16T04:16:25;97375.78;;;-2.97;89.74
56950;BME280;74437;50.080;19.924;2024-01-16T04:18:51;97508.56;;;-2.30;90.63
56950;BME280;74437;50.080;19.924;2024-01-16T04:21:17;97501.63;;;-2.31;90.18
56950;BME280;74437;50.080;19.924;2024-01-16T04:23:42;97504.88;;;-2.29;90.75
56950;BME280;74437;50.080;19.924;2024-01-16T04:26:07;97512.41;;;-2.33;91.18
56950;BME280;74437;50.080;19.924;2024-01-16T04:28:33;97515.69;;;-2.31;91.20
56950;BME280;74437;50.080;19.924;2024-01-16T04:31:00;97513.03;;;-2.31;91.11
56950;BME280;74437;50.080;19.924;2024-01-16T04:33:25;97520.19;;;-2.31;91.56
56950;BME280;74437;50.080;19.924;2024-01-16T04:35:51;97519.59;;;-2.33;91.54
56950;BME280;74437;50.080;19.924;2024-01-16T04:38:16;97494.25;;;-2.49;91.23
56950;BME280;74437;50.080;19.924;2024-01-16T04:40:41;97523.25;;;-2.34;91.92
56950;BME280;74437;50.080;19.924;2024-01-16T04:43:06;97518.56;;;-2.32;91.21
56950;BME280;74437;50.080;19.924;2024-01-16T04:45:32;97523.03;;;-2.33;91.97
56950;BME280;74437;50.080;19.924;2024-01-16T04:47:57;97528.16;;;-2.31;90.74
56950;BME280;74437;50.080;19.924;2024-01-16T04:50:22;97532.84;;;-2.27;90.54
56950;BME280;74437;50.080;19.924;2024-01-16T04:52:48;97541.66;;;-2.26;91.13
56950;BME280;74437;50.080;19.924;2024-01-16T04:55:13;97546.34;;;-2.21;90.16
56950;BME280;74437;50.080;19.924;2024-01-16T04:57:39;97535.09;;;-2.17;89.32
56950;BME280;74437;50.080;19.924;2024-01-16T05:00:05;97551.25;;;-2.12;87.53
56950;BME280;74437;50.080;19.924;2024-01-16T05:02:34;97548.19;;;-2.08;87.93
56950;BME280;74437;50.080;19.924;2024-01-16T05:05:00;97552.69;;;-2.09;87.21
56950;BME280;74437;50.080;19.924;2024-01-16T05:07:25;97544.72;;;-2.02;86.71
56950;BME280;74437;50.080;19.924;2024-01-16T05:09:51;97560.88;;;-1.97;86.16
56950;BME280;74437;50.080;19.924;2024-01-16T05:12:17;97555.75;;;-1.99;86.05
56950;BME280;74437;50.080;19.924;2024-01-16T05:14:42;97555.34;;;-1.96;86.45
56950;BME280;74437;50.080;19.924;2024-01-16T05:17:07;97503.44;;;-2.38;85.86
56950;BME280;74437;50.080;19.924;2024-01-16T05:19:33;97548.81;;;-2.13;86.03
56950;BME280;74437;50.080;19.924;2024-01-16T05:21:58;97586.41;;;-1.96;86.38
56950;BME280;74437;50.080;19.924;2024-01-16T05:24:23;97587.44;;;-1.97;85.73
56950;BME280;74437;50.080;19.924;2024-01-16T05:26:49;97591.91;;;-1.98;86.34
56950;BME280;74437;50.080;19.924;2024-01-16T05:29:14;97612.38;;;-1.91;85.71
56950;BME280;74437;50.080;19.924;2024-01-16T05:31:42;97621.34;;;-1.92;86.17
56950;BME280;74437;50.080;19.924;2024-01-16T05:34:11;97625.88;;;-1.93;86.23
56950;BME280;74437;50.080;19.924;2024-01-16T05:36:36;97623.59;;;-1.96;86.68
56950;BME280;74437;50.080;19.924;2024-01-16T05:39:02;97630.97;;;-1.98;85.61
56950;BME280;74437;50.080;19.924;2024-01-16T05:41:27;97635.25;;;-1.97;86.16
56950;BME280;74437;50.080;19.924;2024-01-16T05:43:57;97635.25;;;-1.97;85.98
56950;BME280;74437;50.080;19.924;2024-01-16T05:46:22;97644.25;;;-1.98;86.42
56950;BME280;74437;50.080;19.924;2024-01-16T05:48:47;97652.00;;;-1.97;85.18
56950;BME280;74437;50.080;19.924;2024-01-16T05:51:12;97650.75;;;-2.01;84.91
56950;BME280;74437;50.080;19.924;2024-01-16T05:53:38;97607.81;;;-2.31;84.90
56950;BME280;74437;50.080;19.924;2024-01-16T05:56:03;97635.22;;;-2.11;84.20
56950;BME280;74437;50.080;19.924;2024-01-16T05:58:28;97665.50;;;-1.98;84.42
56950;BME280;74437;50.080;19.924;2024-01-16T06:00:54;97668.78;;;-1.96;84.16
56950;BME280;74437;50.080;19.924;2024-01-16T06:03:20;97674.09;;;-1.96;83.54
56950;BME280;74437;50.080;19.924;2024-01-16T06:05:46;97682.47;;;-1.99;82.62
56950;BME280;74437;50.080;19.924;2024-01-16T06:08:11;97690.44;;;-1.99;82.42
56950;BME280;74437;50.080;19.924;2024-01-16T06:10:36;97690.41;;;-2.06;82.97
56950;BME280;74437;50.080;19.924;2024-01-16T06:13:02;97679.34;;;-2.10;82.84
56950;BME280;74437;50.080;19.924;2024-01-16T06:15:27;97694.50;;;-2.03;83.08
56950;BME280;74437;50.080;19.924;2024-01-16T06:17:52;97681.59;;;-2.13;83.25
56950;BME280;74437;50.080;19.924;2024-01-16T06:20:17;97698.56;;;-2.07;84.29
56950;BME280;74437;50.080;19.924;2024-01-16T06:22:43;97703.25;;;-2.10;84.26
56950;BME280;74437;50.080;19.924;2024-01-16T06:25:08;97715.13;;;-2.12;84.53
56950;BME280;74437;50.080;19.924;2024-01-16T06:27:33;97681.31;;;-2.38;85.56
56950;BME280;74437;50.080;19.924;2024-01-16T06:29:59;97727.09;;;-2.23;86.56
56950;BME280;74437;50.080;19.924;2024-01-16T06:32:24;97721.56;;;-2.35;87.04
56950;BME280;74437;50.080;19.924;2024-01-16T06:34:49;97724.81;;;-2.40;88.26
56950;BME280;74437;50.080;19.924;2024-01-16T06:37:15;97731.28;;;-2.49;88.42
56950;BME280;74437;50.080;19.924;2024-01-16T06:39:40;97744.97;;;-2.52;89.14
56950;BME280;74437;50.080;19.924;2024-01-16T06:42:06;97745.34;;;-2.55;88.92
56950;BME280;74437;50.080;19.924;2024-01-16T06:44:31;97736.75;;;-2.57;88.99
56950;BME280;74437;50.080;19.924;2024-01-16T06:46:57;97772.28;;;-2.58;89.55
56950;BME280;74437;50.080;19.924;2024-01-16T06:49:22;97703.53;;;-2.88;89.20
56950;BME280;74437;50.080;19.924;2024-01-16T06:51:47;97730.94;;;-2.74;89.10
56950;BME280;74437;50.080;19.924;2024-01-16T06:54:12;97751.88;;;-2.58;88.85
56950;BME280;74437;50.080;19.924;2024-01-16T06:56:38;97720.06;;;-2.86;89.70
56950;BME280;74437;50.080;19.924;2024-01-16T06:59:03;97770.06;;;-2.55;90.07
56950;BME280;74437;50.080;19.924;2024-01-16T07:01:28;97772.72;;;-2.55;90.05
56950;BME280;74437;50.080;19.924;2024-01-16T07:03:54;97782.47;;;-2.62;90.06
56950;BME280;74437;50.080;19.924;2024-01-16T07:06:19;97769.34;;;-2.70;90.32
56950;BME280;74437;50.080;19.924;2024-01-16T07:08:45;97791.06;;;-2.60;90.18
56950;BME280;74437;50.080;19.924;2024-01-16T07:11:10;97789.84;;;-2.57;89.79
56950;BME280;74437;50.080;19.924;2024-01-16T07:13:39;97789.84;;;-2.57;90.22
56950;BME280;74437;50.080;19.924;2024-01-16T07:16:08;97798.44;;;-2.55;90.33
56950;BME280;74437;50.080;19.924;2024-01-16T07:18:34;97794.75;;;-2.54;90.54
56950;BME280;74437;50.080;19.924;2024-01-16T07:20:59;97792.94;;;-2.53;91.58
56950;BME280;74437;50.080;19.924;2024-01-16T07:23:24;97803.19;;;-2.50;91.16
56950;BME280;74437;50.080;19.924;2024-01-16T07:25:50;97806.25;;;-2.47;91.88
56950;BME280;74437;50.080;19.924;2024-01-16T07:28:15;97805.22;;;-2.46;91.29
56950;BME280;74437;50.080;19.924;2024-01-16T07:30:41;97804.59;;;-2.48;91.21
56950;BME280;74437;50.080;19.924;2024-01-16T07:33:06;97817.88;;;-2.48;91.31
56950;BME280;74437;50.080;19.924;2024-01-16T07:35:31;97802.50;;;-2.59;91.28
56950;BME280;74437;50.080;19.924;2024-01-16T07:37:57;97829.75;;;-2.44;91.49
56950;BME280;74437;50.080;19.924;2024-01-16T07:40:22;97747.19;;;-2.91;91.55
56950;BME280;74437;50.080;19.924;2024-01-16T07:42:48;97743.56;;;-2.83;91.59
56950;BME280;74437;50.080;19.924;2024-01-16T07:45:14;97821.88;;;-2.30;91.68
56950;BME280;74437;50.080;19.924;2024-01-16T07:47:39;97832.13;;;-2.27;91.38
56950;BME280;74437;50.080;19.924;2024-01-16T07:50:05;97832.13;;;-2.27;92.29
56950;BME280;74437;50.080;19.924;2024-01-16T07:52:31;97824.78;;;-2.25;92.35
56950;BME280;74437;50.080;19.924;2024-01-16T07:54:56;97841.13;;;-2.21;92.06
56950;BME280;74437;50.080;19.924;2024-01-16T07:57:22;97833.97;;;-2.21;92.42
56950;BME280;74437;50.080;19.924;2024-01-16T07:59:47;97843.56;;;-2.20;92.57
56950;BME280;74437;50.080;19.924;2024-01-16T08:02:13;97850.53;;;-2.19;91.95
56950;BME280;74437;50.080;19.924;2024-01-16T08:04:38;97850.53;;;-2.19;92.42
56950;BME280;74437;50.080;19.924;2024-01-16T08:07:03;97832.13;;;-2.27;92.76
56950;BME280;74437;50.080;19.924;2024-01-16T08:09:29;97850.34;;;-2.17;92.59
56950;BME280;74437;50.080;19.924;2024-01-16T08:11:54;97805.63;;;-2.49;93.03
56950;BME280;74437;50.080;19.924;2024-01-16T08:14:19;97851.78;;;-2.15;93.12
56950;BME280;74437;50.080;19.924;2024-01-16T08:16:44;97860.75;;;-2.16;92.79
56950;BME280;74437;50.080;19.924;2024-01-16T08:19:10;97857.06;;;-2.21;92.90
56950;BME280;74437;50.080;19.924;2024-01-16T08:21:35;97872.84;;;-2.13;93.18
56950;BME280;74437;50.080;19.924;2024-01-16T08:24:01;97877.53;;;-2.15;92.41
56950;BME280;74437;50.080;19.924;2024-01-16T08:26:27;97865.44;;;-2.18;92.37
56950;BME280;74437;50.080;19.924;2024-01-16T08:28:53;97866.06;;;-2.16;92.68
56950;BME280;74437;50.080;19.924;2024-01-16T08:31:18;97854.00;;;-2.25;92.34
56950;BME280;74437;50.080;19.924;2024-01-16T08:33:46;97894.13;;;-2.06;91.89
56950;BME280;74437;50.080;19.924;2024-01-16T08:36:12;97899.69;;;-2.01;91.95
56950;BME280;74437;50.080;19.924;2024-01-16T08:38:37;97900.16;;;-1.91;92.27
56950;BME280;74437;50.080;19.924;2024-01-16T08:41:03;97882.09;;;-2.02;91.57
56950;BME280;74437;50.080;19.924;2024-01-16T08:43:32;97894.22;;;-1.93;90.93
56950;BME280;74437;50.080;19.924;2024-01-16T08:45:57;97906.28;;;-1.90;90.32
56950;BME280;74437;50.080;19.924;2024-01-16T08:48:22;97824.16;;;-2.27;90.31
56950;BME280;74437;50.080;19.924;2024-01-16T08:50:48;97905.28;;;-1.41;88.47
56950;BME280;74437;50.080;19.924;2024-01-16T08:53:13;97909.25;;;-1.16;87.05
56950;BME280;74437;50.080;19.924;2024-01-16T08:55:38;97908.69;;;-0.92;86.25
56950;BME280;74437;50.080;19.924;2024-01-16T08:58:03;97899.50;;;-0.76;84.01
56950;BME280;74437;50.080;19.924;2024-01-16T09:00:29;97917.94;;;-0.13;81.54
56950;BME280;74437;50.080;19.924;2024-01-16T09:02:54;97891.13;;;-0.46;80.74
56950;BME280;74437;50.080;19.924;2024-01-16T09:05:19;97931.47;;;-0.42;80.92
56950;BME280;74437;50.080;19.924;2024-01-16T09:07:50;97899.91;;;-0.58;81.61
56950;BME280;74437;50.080;19.924;2024-01-16T09:10:15;97922.22;;;-0.60;80.84
56950;BME280;74437;50.080;19.924;2024-01-16T09:12:40;97912.63;;;-0.54;80.78
56950;BME280;74437;50.080;19.924;2024-01-16T09:15:06;97925.13;;;-0.27;80.65
56950;BME280;74437;50.080;19.924;2024-01-16T09:17:32;97928.13;;;0.17;78.93
56950;BME280;74437;50.080;19.924;2024-01-16T09:19:57;97873.06;;;0.88;76.53
56950;BME280;74437;50.080;19.924;2024-01-16T09:22:22;97932.47;;;2.91;68.48
56950;BME280;74437;50.080;19.924;2024-01-16T09:24:47;97933.31;;;4.24;62.14
56950;BME280;74437;50.080;19.924;2024-01-16T09:27:13;97921.41;;;5.77;60.06
56950;BME280;74437;50.080;19.924;2024-01-16T09:29:39;97922.28;;;7.00;55.78
56950;BME280;74437;50.080;19.924;2024-01-16T09:32:05;97918.34;;;7.08;53.48
56950;BME280;74437;50.080;19.924;2024-01-16T09:34:30;97922.38;;;6.83;52.86
56950;BME280;74437;50.080;19.924;2024-01-16T09:36:55;97866.56;;;6.79;53.62
56950;BME280;74437;50.080;19.924;2024-01-16T09:39:24;97916.69;;;5.50;55.94
56950;BME280;74437;50.080;19.924;2024-01-16T09:41:49;97927.38;;;6.13;54.13
56950;BME280;74437;50.080;19.924;2024-01-16T09:44:15;97923.13;;;6.57;53.85
56950;BME280;74437;50.080;19.924;2024-01-16T09:46:43;97899.56;;;5.90;53.35
56950;BME280;74437;50.080;19.924;2024-01-16T09:49:11;97915.81;;;6.52;51.52
56950;BME280;74437;50.080;19.924;2024-01-16T09:51:37;97877.06;;;5.79;53.31
56950;BME280;74437;50.080;19.924;2024-01-16T09:54:02;97843.28;;;4.86;54.93
56950;BME280;74437;50.080;19.924;2024-01-16T09:56:35;97938.31;;;3.97;58.53
56950;BME280;74437;50.080;19.924;2024-01-16T09:59:05;97937.28;;;3.32;60.91
56950;BME280;74437;50.080;19.924;2024-01-16T10:01:32;97926.19;;;2.48;62.82
56950;BME280;74437;50.080;19.924;2024-01-16T10:03:58;97932.25;;;2.00;65.03
56950;BME280;74437;50.080;19.924;2024-01-16T10:06:24;97950.47;;;0.88;69.08
56950;BME280;74437;50.080;19.924;2024-01-16T10:08:49;97951.44;;;0.41;75.22
56950;BME280;74437;50.080;19.924;2024-01-16T10:11:14;97962.19;;;0.08;77.23
56950;BME280;74437;50.080;19.924;2024-01-16T10:13:40;97963.66;;;-0.17;78.44
56950;BME280;74437;50.080;19.924;2024-01-16T10:16:06;97967.34;;;-0.18;79.06
56950;BME280;74437;50.080;19.924;2024-01-16T10:18:32;97965.28;;;-0.36;79.56
56950;BME280;74437;50.080;19.924;2024-01-16T10:20:59;97965.47;;;-0.44;80.35
56950;BME280;74437;50.080;19.924;2024-01-16T10:23:29;97958.09;;;-0.55;80.73
56950;BME280;74437;50.080;19.924;2024-01-16T10:28:33;97989.78;;;-0.81;80.63
56950;BME280;74437;50.080;19.924;2024-01-16T10:31:06;97977.72;;;-0.77;82.02
56950;BME280;74437;50.080;19.924;2024-01-16T10:33:33;97959.47;;;-0.86;80.99
56950;BME280;74437;50.080;19.924;2024-01-16T10:36:12;97985.28;;;-0.80;80.16
56950;BME280;74437;50.080;19.924;2024-01-16T10:38:43;97990.44;;;-0.58;80.03
56950;BME280;74437;50.080;19.924;2024-01-16T10:41:09;97980.66;;;0.03;78.47
56950;BME280;74437;50.080;19.924;2024-01-16T10:43:36;97989.44;;;0.23;77.20
56950;BME280;74437;50.080;19.924;2024-01-16T10:48:38;97998.09;;;-0.08;77.43
56950;BME280;74437;50.080;19.924;2024-01-16T10:51:06;97954.22;;;-0.46;78.27
56950;BME280;74437;50.080;19.924;2024-01-16T10:53:33;97987.19;;;-0.47;79.98
56950;BME280;74437;50.080;19.924;2024-01-16T10:56:00;98002.13;;;-0.60;80.30
56950;BME280;74437;50.080;19.924;2024-01-16T10:58:28;98000.28;;;-0.52;81.60
56950;BME280;74437;50.080;19.924;2024-01-16T11:00:57;97997.84;;;-0.54;81.78
56950;BME280;74437;50.080;19.924;2024-01-16T11:03:40;97987.59;;;-0.50;81.61
56950;BME280;74437;50.080;19.924;2024-01-16T11:06:07;97979.78;;;-0.58;81.58
56950;BME280;74437;50.080;19.924;2024-01-16T11:08:38;97984.56;;;-0.13;80.58
56950;BME280;74437;50.080;19.924;2024-01-16T11:11:04;97989.41;;;0.37;78.94
56950;BME280;74437;50.080;19.924;2024-01-16T11:13:34;97980.72;;;0.62;78.03
56950;BME280;74437;50.080;19.924;2024-01-16T11:16:01;97974.91;;;0.85;76.85
56950;BME280;74437;50.080;19.924;2024-01-16T11:18:27;97988.00;;;1.00;75.37
56950;BME280;74437;50.080;19.924;2024-01-16T11:20:54;97978.00;;;0.82;75.38
56950;BME280;74437;50.080;19.924;2024-01-16T11:23:21;97983.09;;;0.97;74.82
56950;BME280;74437;50.080;19.924;2024-01-16T11:25:46;97901.91;;;0.66;75.13
56950;BME280;74437;50.080;19.924;2024-01-16T11:28:12;98007.16;;;1.29;73.23
56950;BME280;74437;50.080;19.924;2024-01-16T11:30:39;98003.00;;;1.40;73.57
56950;BME280;74437;50.080;19.924;2024-01-16T11:33:05;98009.00;;;1.35;73.76
56950;BME280;74437;50.080;19.924;2024-01-16T11:35:34;97959.91;;;0.84;72.53
56950;BME280;74437;50.080;19.924;2024-01-16T11:38:06;98005.91;;;0.86;73.57
56950;BME280;74437;50.080;19.924;2024-01-16T11:40:33;97992.56;;;0.86;73.84
56950;BME280;74437;50.080;19.924;2024-01-16T11:43:34;98007.25;;;0.56;74.77
56950;BME280;74437;50.080;19.924;2024-01-16T11:46:07;98011.56;;;0.44;75.18
56950;BME280;74437;50.080;19.924;2024-01-16T11:48:33;98009.13;;;0.22;76.20
56950;BME280;74437;50.080;19.924;2024-01-16T11:50:58;98022.28;;;0.17;76.23
56950;BME280;74437;50.080;19.924;2024-01-16T11:58:52;98023.28;;;0.09;76.58
56950;BME280;74437;50.080;19.924;2024-01-16T12:01:23;97988.84;;;-0.33;76.46
56950;BME280;74437;50.080;19.924;2024-01-16T12:04:07;98038.44;;;-0.32;77.26
56950;BME280;74437;50.080;19.924;2024-01-16T12:06:35;98025.53;;;-0.41;77.20
56950;BME280;74437;50.080;19.924;2024-01-16T12:09:30;98030.66;;;-0.26;77.78
56950;BME280;74437;50.080;19.924;2024-01-16T12:12:04;98003.19;;;-0.34;79.47
56950;BME280;74437;50.080;19.924;2024-01-16T12:14:30;98022.28;;;-0.03;76.39
56950;BME280;74437;50.080;19.924;2024-01-16T12:17:11;98012.22;;;0.19;75.36
56950;BME280;74437;50.080;19.924;2024-01-16T12:19:37;98023.50;;;0.28;74.20
56950;BME280;74437;50.080;19.924;2024-01-16T12:22:07;98007.50;;;0.28;73.71
56950;BME280;74437;50.080;19.924;2024-01-16T12:24:33;98031.28;;;0.43;73.86
56950;BME280;74437;50.080;19.924;2024-01-16T12:26:58;98025.25;;;0.68;74.38
56950;BME280;74437;50.080;19.924;2024-01-16T12:29:23;98031.00;;;0.65;72.02
56950;BME280;74437;50.080;19.924;2024-01-16T12:31:49;98027.56;;;0.51;72.01
56950;BME280;74437;50.080;19.924;2024-01-16T12:34:14;98030.63;;;0.54;72.06
56950;BME280;74437;50.080;19.924;2024-01-16T12:36:39;98027.75;;;0.42;72.37
56950;BME280;74437;50.080;19.924;2024-01-16T12:39:05;98030.25;;;0.31;72.39
56950;BME280;74437;50.080;19.924;2024-01-16T12:41:36;98059.81;;;0.29;73.07
56950;BME280;74437;50.080;19.924;2024-01-16T12:44:03;98042.75;;;0.23;72.45
56950;BME280;74437;50.080;19.924;2024-01-16T12:46:29;98071.06;;;0.24;71.82
56950;BME280;74437;50.080;19.924;2024-01-16T12:49:03;98065.75;;;0.18;72.59
56950;BME280;74437;50.080;19.924;2024-01-16T12:51:29;98064.53;;;0.00;75.41
56950;BME280;74437;50.080;19.924;2024-01-16T12:54:12;98068.78;;;-0.26;78.14
56950;BME280;74437;50.080;19.924;2024-01-16T12:56:38;98067.09;;;-0.47;81.23
56950;BME280;74437;50.080;19.924;2024-01-16T12:59:12;98074.22;;;-0.54;81.30